METAR Data

Data at: 2142 UTC 01 Dec 2021

METAR for:KRKD (Rockland/Knox Cnty, ME, US)
Text:KRKD 012056Z AUTO 00000KT 10SM BKN041 03/M01 A3005 RMK AO2 SLP176 T00331011 53021
Temperature: 3.3°C ( 38°F)
Dewpoint: -1.1°C ( 30°F) [RH = 73%]
Pressure (altimeter):30.05 inches Hg (1017.7 mb) [Sea level pressure: 1017.6 mb]
Winds:calm
Visibility:10 or more sm (16+ km)
Ceiling:4100 feet AGL
Clouds: broken clouds at 4100 feet AGL
QC Flag:automated observation with no human augmentation